Fort Wayne, Indiana
Current Conditions -  °F | °C
As of 2:54 PM on Friday 24 Oct 2014 (Local Time) from KFWA Reporting Station
Broken Clouds Broken Clouds  
Wind Chill: 16°   Ceiling: 25000
Heat Index: 16°   Visibility: 10mi
Dew Point:   Wind: 5mph
Humidity: 64%   Direction: NA
Pressure: 30.03"   Gusts: NA
Location:  41.08°N, 85.1°W
Report Text: KFWA 241854Z VRB04KT 10SM SCT025 BKN250 16/09 A3003 RMK AO2 SLP172 T01610094
Loading
Personal Weather Stations






























Interactive Weather Map
Tropical Storm Tracking
New forecast layout! Learn more

10-Day Weather Forecast

Advertisements
Track Severe Weather on mobile